Time;durP1;ratioP1;P1;durP2;ratioP2;P2;SDS_P1;SDS_P2;PMS_P1;PMS_P2;Temp;Humidity;BMP_temperature;BMP_pressure;BME280_temperature;BME280_humidity;BME280_pressure;Samples;Min_cycle;Max_cycle;Signal;HPM_P1;HPM_P2
2023/12/22 00:01:04;;;;;;;20.63;3.35;;;;;;;4.84;100.00;100194.66;5082782;28;20020;-72
2023/12/22 00:03:29;;;;;;;21.25;3.40;;;;;;;4.71;100.00;100197.94;5082885;28;20033;-72
2023/12/22 00:05:55;;;;;;;20.35;3.22;;;;;;;4.71;100.00;100192.69;5083558;28;20060;-72
2023/12/22 00:08:20;;;;;;;20.95;3.50;;;;;;;4.67;100.00;100181.25;5081410;28;20052;-72
2023/12/22 00:10:45;;;;;;;20.80;3.60;;;;;;;4.62;100.00;100197.78;5084835;28;20040;-74
2023/12/22 00:13:11;;;;;;;19.13;3.30;;;;;;;4.59;100.00;100198.59;5081670;28;20386;-74
2023/12/22 00:15:36;;;;;;;20.95;3.42;;;;;;;4.62;100.00;100192.53;5083625;28;20029;-72
2023/12/22 00:18:01;;;;;;;20.40;3.33;;;;;;;4.70;100.00;100206.63;5082502;28;20032;-74
2023/12/22 00:20:27;;;;;;;23.42;3.72;;;;;;;4.69;100.00;100208.38;5082413;28;20063;-74
2023/12/22 00:22:52;;;;;;;21.30;3.58;;;;;;;4.77;100.00;100213.75;5083735;28;20463;-74
2023/12/22 00:25:17;;;;;;;21.88;3.83;;;;;;;4.79;100.00;100227.75;5080908;28;20491;-76
2023/12/22 00:27:43;;;;;;;21.98;3.40;;;;;;;4.87;100.00;100228.75;5054795;28;20029;-74
2023/12/22 00:30:09;;;;;;;23.45;3.85;;;;;;;4.94;100.00;100236.75;5083714;28;20356;-69
2023/12/22 00:32:34;;;;;;;22.13;3.45;;;;;;;4.93;100.00;100230.63;5081894;28;20036;-69
2023/12/22 00:34:59;;;;;;;22.40;3.40;;;;;;;5.00;100.00;100229.00;5082584;28;20020;-70
2023/12/22 00:37:25;;;;;;;21.83;3.60;;;;;;;4.98;100.00;100238.53;5065418;28;20111;-69
2023/12/22 00:39:50;;;;;;;23.52;4.07;;;;;;;5.02;100.00;100240.38;5081313;28;20027;-70
2023/12/22 00:42:15;;;;;;;21.85;3.63;;;;;;;4.97;100.00;100242.03;5066389;28;20386;-73
2023/12/22 00:44:41;;;;;;;23.52;3.72;;;;;;;4.95;100.00;100233.25;5080944;28;20433;-74
2023/12/22 00:47:06;;;;;;;21.23;3.70;;;;;;;4.94;100.00;100242.00;5083474;28;20033;-74
2023/12/22 00:49:31;;;;;;;22.15;3.80;;;;;;;4.95;100.00;100233.25;5082201;28;20027;-74
2023/12/22 00:51:57;;;;;;;21.83;3.65;;;;;;;4.94;100.00;100247.22;5081918;28;20462;-74
2023/12/22 00:54:22;;;;;;;22.77;3.83;;;;;;;4.96;100.00;100228.03;5083546;28;20035;-74
2023/12/22 00:56:47;;;;;;;24.48;3.90;;;;;;;4.92;100.00;100222.72;5080619;28;20086;-74
2023/12/22 00:59:13;;;;;;;24.02;4.22;;;;;;;4.94;100.00;100226.28;5083888;28;20188;-74
2023/12/22 01:01:38;;;;;;;22.40;3.83;;;;;;;4.88;100.00;100227.91;5081353;28;20041;-74
2023/12/22 01:04:03;;;;;;;25.35;4.38;;;;;;;4.89;100.00;100234.94;5064661;28;20036;-74
2023/12/22 01:06:29;;;;;;;23.63;3.83;;;;;;;4.89;100.00;100237.56;5082622;28;20432;-74
2023/12/22 01:08:54;;;;;;;21.33;3.80;;;;;;;4.95;100.00;100233.25;5063391;28;20044;-74
2023/12/22 01:11:20;;;;;;;24.10;4.05;;;;;;;4.96;100.00;100229.78;5087499;28;20082;-70
2023/12/22 01:13:45;;;;;;;22.20;3.72;;;;;;;5.06;100.00;100216.00;5084587;28;20041;-71
2023/12/22 01:16:10;;;;;;;22.52;4.05;;;;;;;5.21;100.00;100224.13;5087564;28;20027;-69
2023/12/22 01:18:36;;;;;;;23.23;4.00;;;;;;;5.24;100.00;100224.16;5085524;28;20059;-69
2023/12/22 01:21:01;;;;;;;21.08;4.07;;;;;;;5.40;100.00;100199.06;5086189;28;20040;-69
2023/12/22 01:23:26;;;;;;;21.70;3.97;;;;;;;5.51;100.00;100214.94;5068774;28;20032;-69
2023/12/22 01:25:52;;;;;;;20.88;3.70;;;;;;;5.83;100.00;100217.16;5084649;28;20048;-69
2023/12/22 01:28:17;;;;;;;22.80;4.10;;;;;;;6.09;100.00;100229.78;5087770;28;20032;-69
2023/12/22 01:30:43;;;;;;;21.50;3.80;;;;;;;6.22;100.00;100226.44;5084061;28;20091;-69
2023/12/22 01:33:08;;;;;;;20.20;3.78;;;;;;;6.20;100.00;100229.91;5086706;28;20375;-70
2023/12/22 01:35:33;;;;;;;21.20;3.67;;;;;;;6.08;100.00;100244.63;5085558;28;20365;-69
2023/12/22 01:37:59;;;;;;;22.23;3.72;;;;;;;6.20;100.00;100222.91;5085369;28;20025;-69
2023/12/22 01:40:24;;;;;;;21.95;3.70;;;;;;;6.34;100.00;100225.72;5068569;28;20073;-69
2023/12/22 01:42:50;;;;;;;21.35;3.42;;;;;;;6.31;100.00;100222.19;5084185;28;20368;-69
2023/12/22 01:45:15;;;;;;;21.50;3.72;;;;;;;6.33;100.00;100244.94;5087566;28;20024;-70
2023/12/22 01:47:41;;;;;;;21.42;3.75;;;;;;;6.36;100.00;100223.97;5084442;28;20029;-69
2023/12/22 01:50:10;;;;;;;20.10;3.30;;;;;;;6.39;100.00;100223.13;5086428;28;20058;-69
2023/12/22 01:52:36;;;;;;;20.10;3.38;;;;;;;6.27;100.00;100230.00;5084778;28;20036;-69
2023/12/22 01:55:02;;;;;;;20.42;3.78;;;;;;;6.32;100.00;100227.44;5085320;28;20039;-69
2023/12/22 01:57:29;;;;;;;21.80;4.40;;;;;;;6.26;100.00;100249.25;5086141;28;20115;-69
2023/12/22 01:59:56;;;;;;;20.35;3.58;;;;;;;6.18;100.00;100247.41;5084517;28;20215;-70
2023/12/22 02:02:22;;;;;;;23.58;3.92;;;;;;;6.26;100.00;100257.13;5086602;28;20368;-71
2023/12/22 02:04:48;;;;;;;21.48;3.97;;;;;;;6.37;100.00;100249.38;5083590;28;20028;-69
2023/12/22 02:07:13;;;;;;;20.80;3.60;;;;;;;6.38;100.00;100256.41;5068669;28;20044;-69
2023/12/22 02:09:39;;;;;;;21.80;3.80;;;;;;;6.47;100.00;100262.63;5084520;28;20036;-70
2023/12/22 02:12:04;;;;;;;22.40;4.18;;;;;;;6.53;100.00;100244.31;5085994;28;20067;-70
2023/12/22 02:14:30;;;;;;;20.63;3.60;;;;;;;6.50;100.00;100241.66;5085122;28;20028;-70
2023/12/22 02:17:10;;;;;;;19.80;3.70;;;;;;;6.47;100.00;100241.63;5084191;28;20048;-70
2023/12/22 02:19:38;;;;;;;20.83;3.70;;;;;;;6.37;100.00;100220.50;5084718;28;20020;-69
2023/12/22 02:22:08;;;;;;;19.45;3.35;;;;;;;6.33;100.00;100221.31;5085112;28;20021;-70
2023/12/22 02:24:33;;;;;;;21.95;3.67;;;;;;;6.50;100.00;100210.13;5084794;28;20024;-69
2023/12/22 02:27:24;;;;;;;17.83;3.30;;;;;;;6.55;100.00;100214.59;5084646;28;20058;-74
2023/12/22 02:29:57;;;;;;;17.83;3.30;;;;;;;6.63;100.00;100209.41;5083028;28;20539;-74
2023/12/22 02:32:27;;;;;;;18.90;3.25;;;;;;;6.75;100.00;100211.25;5086061;28;20461;-75
2023/12/22 02:34:56;;;;;;;19.55;3.50;;;;;;;6.78;100.00;100227.91;5083295;28;20448;-75
2023/12/22 02:37:23;;;;;;;20.05;3.80;;;;;;;6.84;100.00;100242.88;5086177;28;20481;-75
2023/12/22 02:39:51;;;;;;;17.85;3.10;;;;;;;6.93;100.00;100264.00;5083013;28;20025;-75
2023/12/22 02:42:18;;;;;;;20.20;3.45;;;;;;;6.75;100.00;100262.06;5082709;28;20094;-73
2023/12/22 02:44:43;;;;;;;19.20;3.45;;;;;;;6.19;100.00;100257.00;5086317;28;20031;-75
2023/12/22 02:47:09;;;;;;;18.45;3.25;;;;;;;5.92;100.00;100242.63;5083517;28;20098;-75
2023/12/22 02:49:34;;;;;;;20.00;3.42;;;;;;;5.59;100.00;100262.25;5084586;28;20115;-74
2023/12/22 02:51:59;;;;;;;17.38;3.08;;;;;;;5.62;100.00;100243.06;5084583;28;20056;-74
2023/12/22 02:54:28;;;;;;;18.70;3.00;;;;;;;5.62;100.00;100257.09;5083365;28;20421;-74
2023/12/22 02:56:53;;;;;;;22.63;3.95;;;;;;;5.53;100.00;100255.22;5085619;28;20032;-74
2023/12/22 02:59:18;;;;;;;19.45;3.35;;;;;;;5.44;100.00;100254.16;5082659;28;20437;-74
2023/12/22 03:01:44;;;;;;;19.90;3.47;;;;;;;5.36;100.00;100254.06;5085926;28;20455;-74
2023/12/22 03:04:09;;;;;;;22.65;3.92;;;;;;;5.22;100.00;100241.59;5083019;28;20051;-70
2023/12/22 03:06:34;;;;;;;21.30;3.78;;;;;;;5.29;100.00;100246.94;5084332;28;20059;-71
2023/12/22 03:09:00;;;;;;;22.58;3.88;;;;;;;5.45;100.00;100241.09;5084289;28;20353;-74
2023/12/22 03:11:25;;;;;;;22.30;3.97;;;;;;;5.43;100.00;100232.28;5082897;28;20070;-73
2023/12/22 03:13:50;;;;;;;23.88;4.28;;;;;;;5.51;100.00;100222.81;5085337;28;20077;-74
2023/12/22 03:16:16;;;;;;;22.73;4.03;;;;;;;5.54;100.00;100228.09;5082315;28;20020;-75
2023/12/22 03:18:41;;;;;;;22.85;3.92;;;;;;;5.56;100.00;100221.16;5085012;28;20379;-72
2023/12/22 03:21:06;;;;;;;23.23;4.43;;;;;;;5.62;100.00;100227.34;5083521;28;20032;-75
2023/12/22 03:23:32;;;;;;;21.58;3.75;;;;;;;5.64;100.00;100220.41;5083554;28;20025;-69
2023/12/22 03:25:57;;;;;;;24.65;4.47;;;;;;;5.76;100.00;100215.31;5084643;28;20470;-69
2023/12/22 03:28:22;;;;;;;21.90;4.10;;;;;;;5.72;100.00;100213.50;5082639;28;20105;-70
2023/12/22 03:30:48;;;;;;;20.58;3.80;;;;;;;5.78;100.00;100223.19;5085268;28;20433;-70
2023/12/22 03:33:13;;;;;;;22.77;3.85;;;;;;;5.85;100.00;100228.53;5081348;28;20024;-70
2023/12/22 03:35:38;;;;;;;22.50;4.30;;;;;;;5.94;100.00;100222.53;5084526;28;20025;-71
2023/12/22 03:38:04;;;;;;;22.33;4.15;;;;;;;5.93;100.00;100224.28;5065271;28;20089;-68
2023/12/22 03:40:30;;;;;;;20.17;3.80;;;;;;;6.06;100.00;100235.00;5082943;28;20029;-68
2023/12/22 03:42:55;;;;;;;21.50;3.90;;;;;;;6.12;100.00;100235.06;5066600;28;20036;-69
2023/12/22 03:45:20;;;;;;;19.05;3.33;;;;;;;6.15;100.00;100218.50;5063521;28;20025;-70
2023/12/22 03:47:46;;;;;;;20.63;3.92;;;;;;;6.29;100.00;100201.13;5085069;28;20032;-70
2023/12/22 03:50:11;;;;;;;21.52;3.45;;;;;;;6.40;100.00;100212.66;5082174;28;20016;-69
2023/12/22 03:52:36;;;;;;;21.95;3.50;;;;;;;6.47;100.00;100221.47;5083721;28;20021;-69
2023/12/22 03:55:02;;;;;;;20.38;3.50;;;;;;;6.48;100.00;100219.72;5083247;28;20489;-68
2023/12/22 03:57:28;;;;;;;21.10;3.38;;;;;;;6.57;100.00;100225.97;5082552;28;20037;-68
2023/12/22 03:59:53;;;;;;;23.08;3.85;;;;;;;6.56;100.00;100232.06;5084287;28;20059;-69
2023/12/22 04:02:18;;;;;;;18.45;3.30;;;;;;;6.58;100.00;100235.63;5081717;28;20040;-75
2023/12/22 04:04:44;;;;;;;20.67;3.65;;;;;;;6.66;100.00;100234.81;5084493;28;20111;-75
2023/12/22 04:07:09;;;;;;;22.02;3.40;;;;;;;6.73;100.00;100237.53;5082079;28;20113;-75
2023/12/22 04:09:38;;;;;;;21.23;3.40;;;;;;;6.73;100.00;100249.78;5083265;28;20060;-75
2023/12/22 04:12:03;;;;;;;21.65;3.78;;;;;;;6.76;100.00;100244.56;5082981;28;20149;-74
2023/12/22 04:14:28;;;;;;;21.52;3.60;;;;;;;6.85;100.00;100244.63;5082121;28;20123;-73
2023/12/22 04:16:54;;;;;;;19.27;3.50;;;;;;;6.96;100.00;100247.38;5084216;28;20031;-71
2023/12/22 04:19:19;;;;;;;20.92;3.28;;;;;;;6.97;100.00;100250.03;5080985;28;20020;-71
2023/12/22 04:21:44;;;;;;;19.08;3.53;;;;;;;7.04;100.00;100250.97;5066392;28;20035;-69
2023/12/22 04:24:10;;;;;;;22.65;4.05;;;;;;;7.06;100.00;100264.09;5081834;28;20028;-70
2023/12/22 04:26:35;;;;;;;20.60;3.40;;;;;;;7.17;100.00;100258.97;5048416;28;20032;-71
2023/12/22 04:29:01;;;;;;;20.58;3.58;;;;;;;7.15;100.00;100264.22;5082856;28;20459;-75
2023/12/22 04:31:26;;;;;;;19.98;3.20;;;;;;;7.15;100.00;100269.47;5081885;28;20446;-76
2023/12/22 04:33:51;;;;;;;17.83;3.08;;;;;;;7.17;100.00;100256.34;5083984;28;20061;-74
2023/12/22 04:36:17;;;;;;;19.63;3.10;;;;;;;7.11;100.00;100283.44;5081064;28;20024;-74
2023/12/22 04:38:42;;;;;;;19.88;3.20;;;;;;;7.24;100.00;100268.69;5083917;28;20032;-72
2023/12/22 04:41:08;;;;;;;19.17;3.40;;;;;;;7.18;100.00;100282.63;5081794;28;20093;-74
2023/12/22 04:43:33;;;;;;;23.88;3.67;;;;;;;7.13;100.00;100276.44;5082661;28;20425;-75
2023/12/22 04:45:58;;;;;;;18.98;3.30;;;;;;;7.14;100.00;100273.81;5086521;28;20448;-75
2023/12/22 04:48:24;;;;;;;20.05;3.25;;;;;;;7.17;100.00;100267.72;5085642;28;20083;-75
2023/12/22 04:50:49;;;;;;;19.13;3.25;;;;;;;7.12;100.00;100261.53;5088630;28;20506;-73
2023/12/22 04:53:14;;;;;;;18.77;3.38;;;;;;;7.15;100.00;100277.34;5085181;28;20036;-73
2023/12/22 04:55:40;;;;;;;18.92;3.30;;;;;;;7.13;100.00;100265.94;5087416;28;20031;-75
2023/12/22 04:58:05;;;;;;;19.08;3.60;;;;;;;7.11;100.00;100276.44;5068313;28;20024;-76
2023/12/22 05:00:30;;;;;;;19.20;3.20;;;;;;;7.16;100.00;100276.47;5086032;28;20032;-70
2023/12/22 05:02:56;;;;;;;18.30;3.58;;;;;;;7.13;100.00;100279.06;5087336;28;20024;-70
2023/12/22 05:05:21;;;;;;;17.77;3.20;;;;;;;7.19;100.00;100284.38;5084795;28;20475;-70
2023/12/22 05:07:46;;;;;;;21.63;3.65;;;;;;;7.25;100.00;100281.84;5087782;28;20588;-69
2023/12/22 05:10:12;;;;;;;18.40;3.20;;;;;;;7.24;100.00;100290.56;5085314;28;20133;-69
2023/12/22 05:12:37;;;;;;;18.70;3.55;;;;;;;7.22;100.00;100297.53;5068694;28;20043;-71
2023/12/22 05:15:03;;;;;;;19.85;3.47;;;;;;;7.27;100.00;100295.84;5086400;28;20044;-69
2023/12/22 05:17:28;;;;;;;21.77;3.47;;;;;;;7.20;100.00;100299.28;5067695;28;20032;-70
2023/12/22 05:19:53;;;;;;;21.25;3.40;;;;;;;7.07;100.00;100307.94;5087576;28;20482;-70
2023/12/22 05:22:19;;;;;;;21.08;3.80;;;;;;;6.82;100.00;100307.66;5084464;28;20035;-70
2023/12/22 05:24:44;;;;;;;18.00;3.17;;;;;;;6.75;100.00;100280.44;5087652;28;20031;-70
2023/12/22 05:27:09;;;;;;;22.85;3.70;;;;;;;6.78;100.00;100279.59;5085077;28;20052;-70
2023/12/22 05:29:35;;;;;;;21.83;3.53;;;;;;;6.77;100.00;100301.47;5068083;28;20060;-70
2023/12/22 05:32:00;;;;;;;23.67;4.50;;;;;;;6.67;100.00;100318.00;5086479;28;20024;-69
2023/12/22 05:34:25;;;;;;;22.33;4.25;;;;;;;6.80;100.00;100310.28;5084559;28;20443;-69
2023/12/22 05:36:51;;;;;;;22.65;4.53;;;;;;;6.80;100.00;100298.88;5087744;28;20063;-71
2023/12/22 05:39:16;;;;;;;24.15;4.30;;;;;;;6.87;100.00;100295.44;5066174;28;20565;-70
2023/12/22 05:41:41;;;;;;;21.77;4.00;;;;;;;7.06;100.00;100295.66;5086989;28;20036;-70
2023/12/22 05:44:07;;;;;;;22.42;4.53;;;;;;;7.06;100.00;100293.91;5085236;28;20081;-72
2023/12/22 05:46:40;;;;;;;27.25;5.45;;;;;;;7.05;100.00;100289.53;5085437;28;20024;-75
2023/12/22 05:49:06;;;;;;;25.83;5.32;;;;;;;7.08;100.00;100292.19;5085262;28;20031;-73
2023/12/22 05:51:38;;;;;;;24.60;5.28;;;;;;;7.09;100.00;100293.94;5085000;28;20383;-71
2023/12/22 05:54:05;;;;;;;26.80;5.10;;;;;;;7.04;100.00;100295.63;5085656;28;20036;-70
2023/12/22 05:56:31;;;;;;;24.77;4.93;;;;;;;6.95;100.00;100314.81;5084401;28;20451;-75
2023/12/22 05:58:56;;;;;;;26.65;5.10;;;;;;;7.09;100.00;100287.78;5086724;28;20056;-76
2023/12/22 06:01:21;;;;;;;26.35;5.43;;;;;;;6.96;100.00;100285.06;5065697;28;20036;-75
2023/12/22 06:03:48;;;;;;;29.20;5.40;;;;;;;6.84;100.00;100294.56;5087193;28;20031;-76
2023/12/22 06:06:14;;;;;;;28.45;6.38;;;;;;;6.76;100.00;100304.97;5083887;28;20078;-76
2023/12/22 06:08:39;;;;;;;26.40;5.32;;;;;;;6.71;100.00;100289.13;5085968;28;20052;-76
2023/12/22 06:11:05;;;;;;;29.45;5.78;;;;;;;6.66;100.00;100304.00;5084967;28;20494;-76
2023/12/22 06:13:30;;;;;;;26.95;6.00;;;;;;;6.69;100.00;100300.53;5084467;28;20388;-76
2023/12/22 06:15:56;;;;;;;27.95;5.85;;;;;;;6.68;100.00;100277.75;5068362;28;20437;-76
2023/12/22 06:18:22;;;;;;;28.92;6.28;;;;;;;6.69;100.00;100300.53;5083292;28;20086;-76
2023/12/22 06:20:47;;;;;;;28.25;6.13;;;;;;;6.75;100.00;100292.69;5086892;28;20032;-75
2023/12/22 06:23:12;;;;;;;26.95;5.50;;;;;;;6.96;100.00;100279.81;5083734;28;20040;-70
2023/12/22 06:25:38;;;;;;;27.48;5.90;;;;;;;7.10;100.00;100263.28;5085286;28;20040;-70
2023/12/22 06:28:03;;;;;;;26.65;5.47;;;;;;;7.09;100.00;100286.06;5085327;28;20028;-69
2023/12/22 06:30:30;;;;;;;25.23;5.05;;;;;;;7.21;100.00;100284.41;5065831;28;20037;-69
2023/12/22 06:32:55;;;;;;;31.27;6.45;;;;;;;7.23;100.00;100285.31;5067753;28;20028;-70
2023/12/22 06:35:23;;;;;;;30.02;6.70;;;;;;;7.34;100.00;100275.78;5083113;28;20032;-69
2023/12/22 06:37:49;;;;;;;28.88;6.40;;;;;;;7.36;100.00;100288.94;5083104;28;20025;-70
2023/12/22 06:40:15;;;;;;;30.83;6.72;;;;;;;7.36;100.00;100289.81;5067848;28;20032;-69
2023/12/22 06:42:40;;;;;;;29.63;6.35;;;;;;;7.40;100.00;100280.22;5083835;28;20034;-69
2023/12/22 06:45:06;;;;;;;27.33;5.75;;;;;;;7.43;100.00;100303.91;5084603;28;20451;-69
2023/12/22 06:47:31;;;;;;;32.05;6.22;;;;;;;7.49;100.00;100296.03;5084999;28;20103;-70
2023/12/22 06:49:57;;;;;;;28.90;6.25;;;;;;;7.49;100.00;100290.78;5065519;28;20476;-70
2023/12/22 06:52:22;;;;;;;30.48;6.88;;;;;;;7.45;100.00;100300.38;5086283;28;20044;-70
2023/12/22 06:54:47;;;;;;;30.25;6.32;;;;;;;7.41;100.00;100293.38;5082500;28;20061;-69
2023/12/22 06:57:13;;;;;;;28.30;6.15;;;;;;;7.52;100.00;100285.56;5085408;28;20094;-68
2023/12/22 06:59:39;;;;;;;31.73;6.65;;;;;;;7.57;100.00;100294.38;5083651;28;20028;-69
2023/12/22 07:02:04;;;;;;;29.17;5.97;;;;;;;7.62;100.00;100295.28;5084111;28;20056;-72
2023/12/22 07:04:29;;;;;;;30.25;6.95;;;;;;;7.61;100.00;100306.66;5084894;28;20105;-68
2023/12/22 07:06:55;;;;;;;32.05;6.13;;;;;;;7.66;100.00;100291.81;5081848;28;20025;-69
2023/12/22 07:09:20;;;;;;;28.95;6.43;;;;;;;7.66;100.00;100289.16;5085645;28;20132;-69
2023/12/22 07:11:50;;;;;;;29.83;6.15;;;;;;;7.67;100.00;100312.00;5082396;28;20094;-69
2023/12/22 07:14:16;;;;;;;30.00;6.60;;;;;;;7.76;100.00;100247.13;5085472;28;20070;-69
2023/12/22 07:16:42;;;;;;;28.20;6.03;;;;;;;7.75;100.00;100287.47;5083150;28;20032;-69
2023/12/22 07:19:08;;;;;;;30.15;6.93;;;;;;;7.71;100.00;100285.69;5084065;28;20036;-70
2023/12/22 07:21:33;;;;;;;30.30;6.47;;;;;;;7.74;100.00;100286.59;5065812;28;20382;-69
2023/12/22 07:23:58;;;;;;;28.70;6.15;;;;;;;7.76;100.00;100294.50;5082897;28;20032;-69
2023/12/22 07:26:24;;;;;;;27.88;5.95;;;;;;;7.79;100.00;100294.50;5085456;28;20032;-68
2023/12/22 07:28:50;;;;;;;28.85;6.18;;;;;;;7.77;100.00;100280.47;5081934;28;20051;-69
2023/12/22 07:31:15;;;;;;;28.08;5.68;;;;;;;7.84;100.00;100275.25;5085050;28;20027;-68
2023/12/22 07:33:40;;;;;;;28.23;6.00;;;;;;;7.87;100.00;100290.19;5082580;28;20097;-69
2023/12/22 07:36:07;;;;;;;28.30;6.22;;;;;;;7.84;100.00;100285.78;5083824;28;20037;-69
2023/12/22 07:38:32;;;;;;;27.30;5.72;;;;;;;7.88;100.00;100297.22;5083700;28;20038;-75
2023/12/22 07:40:58;;;;;;;26.98;5.90;;;;;;;7.90;100.00;100292.84;5064269;28;20029;-75
2023/12/22 07:43:24;;;;;;;30.80;6.57;;;;;;;7.84;100.00;100285.78;5084606;28;20115;-75
2023/12/22 07:45:50;;;;;;;29.70;6.25;;;;;;;7.86;100.00;100270.00;5081606;28;20029;-76
2023/12/22 07:48:16;;;;;;;27.35;5.45;;;;;;;7.82;100.00;100281.38;5084671;28;20089;-75
2023/12/22 07:50:42;;;;;;;29.00;6.18;;;;;;;7.85;100.00;100258.59;5064272;28;20044;-75
2023/12/22 07:53:08;;;;;;;30.67;6.55;;;;;;;7.83;100.00;100281.41;5083542;28;20036;-71
2023/12/22 07:55:34;;;;;;;27.27;6.03;;;;;;;7.84;100.00;100288.41;5065327;28;20040;-71
2023/12/22 07:57:59;;;;;;;30.52;5.78;;;;;;;7.90;100.00;100282.31;5082112;28;20035;-70
2023/12/22 08:00:24;;;;;;;29.23;6.65;;;;;;;7.88;100.00;100289.31;5085082;28;20020;-69
2023/12/22 08:02:50;;;;;;;25.92;6.00;;;;;;;7.91;100.00;100284.06;5081555;28;20028;-70
2023/12/22 08:05:16;;;;;;;28.85;5.35;;;;;;;7.88;100.00;100277.91;5084447;28;20093;-75
2023/12/22 08:07:41;;;;;;;29.15;6.30;;;;;;;7.91;100.00;100284.06;5081705;28;20051;-75
2023/12/22 08:10:07;;;;;;;27.63;5.95;;;;;;;7.97;100.00;100314.81;5083338;28;20041;-74
2023/12/22 08:12:33;;;;;;;27.80;5.47;;;;;;;8.06;100.00;100296.44;5083693;28;20474;-75
2023/12/22 08:14:58;;;;;;;26.35;5.18;;;;;;;7.99;100.00;100292.91;5063568;28;20035;-75
2023/12/22 08:17:24;;;;;;;28.20;5.60;;;;;;;7.98;100.00;100285.88;5084582;28;20125;-75
2023/12/22 08:19:49;;;;;;;27.25;5.50;;;;;;;8.01;100.00;100285.91;5081039;28;20464;-74
2023/12/22 08:22:15;;;;;;;25.75;5.13;;;;;;;8.00;100.00;100281.50;5083970;28;20444;-75
2023/12/22 08:24:41;;;;;;;24.30;5.30;;;;;;;8.03;100.00;100273.59;5082032;28;20383;-74
2023/12/22 08:27:07;;;;;;;25.08;5.00;;;;;;;8.05;100.00;100285.91;5083196;28;20086;-75
2023/12/22 08:29:33;;;;;;;24.77;5.00;;;;;;;8.06;100.00;100288.53;5083336;28;20459;-70
2023/12/22 08:31:58;;;;;;;23.92;4.97;;;;;;;8.07;100.00;100284.16;5081447;28;20033;-69
2023/12/22 08:34:24;;;;;;;23.42;4.70;;;;;;;8.10;100.00;100290.34;5084513;28;20410;-69
2023/12/22 08:36:49;;;;;;;24.23;4.57;;;;;;;8.09;100.00;100287.69;5080778;28;20468;-69
2023/12/22 08:39:15;;;;;;;20.88;4.30;;;;;;;8.16;100.00;100274.56;5083672;28;20134;-71
2023/12/22 08:41:40;;;;;;;22.98;4.57;;;;;;;8.15;100.00;100282.44;5082085;28;20047;-69
2023/12/22 08:44:06;;;;;;;22.00;3.95;;;;;;;8.07;100.00;100268.34;5082415;28;20036;-69
2023/12/22 08:46:32;;;;;;;22.58;4.03;;;;;;;8.10;100.00;100271.91;5083248;28;20067;-69
2023/12/22 08:48:59;;;;;;;21.05;3.60;;;;;;;8.23;100.00;100278.13;5081215;28;20099;-69
2023/12/22 08:51:27;;;;;;;22.90;4.22;;;;;;;8.15;100.00;100282.44;5084000;28;20028;-69
2023/12/22 08:53:54;;;;;;;20.73;3.72;;;;;;;8.14;100.00;100275.41;5080853;28;20041;-69
2023/12/22 08:56:23;;;;;;;20.58;3.70;;;;;;;8.16;100.00;100268.44;5080946;28;20031;-71
2023/12/22 08:58:51;;;;;;;22.10;3.65;;;;;;;8.06;100.00;100267.47;5084037;28;20474;-69
2023/12/22 09:01:17;;;;;;;20.52;3.83;;;;;;;8.10;100.00;100278.94;5063590;28;20082;-71
2023/12/22 09:03:45;;;;;;;20.00;3.50;;;;;;;8.06;100.00;100282.41;5083460;28;20110;-69
2023/12/22 09:06:22;;;;;;;21.02;3.65;;;;;;;8.10;100.00;100278.94;5081629;28;20386;-69
2023/12/22 09:08:48;;;;;;;17.23;3.70;;;;;;;8.06;100.00;100250.81;5083526;28;20077;-69
2023/12/22 09:11:15;;;;;;;16.95;3.17;;;;;;;8.14;100.00;100276.31;5081454;28;20040;-68
2023/12/22 09:13:41;;;;;;;16.65;3.22;;;;;;;8.08;100.00;100249.06;5064663;28;20442;-69
2023/12/22 09:16:07;;;;;;;17.85;3.13;;;;;;;8.10;100.00;100284.19;5082127;28;20028;-69
2023/12/22 09:18:32;;;;;;;15.68;3.28;;;;;;;8.19;100.00;100274.56;5081774;28;20032;-69
2023/12/22 09:20:58;;;;;;;16.80;3.15;;;;;;;8.15;100.00;100283.31;5083542;28;20028;-69
2023/12/22 09:23:23;;;;;;;18.88;2.92;;;;;;;8.20;100.00;100281.59;5062413;28;20510;-69
2023/12/22 09:25:49;;;;;;;17.48;3.13;;;;;;;8.26;100.00;100286.03;5080577;28;20421;-75
2023/12/22 09:28:14;;;;;;;18.48;2.90;;;;;;;8.29;100.00;100286.03;5083192;28;20458;-69
2023/12/22 09:30:40;;;;;;;14.32;2.70;;;;;;;8.28;100.00;100268.47;5082531;28;20069;-71
2023/12/22 09:33:05;;;;;;;16.45;2.85;;;;;;;8.33;100.00;100272.00;5085744;28;20516;-69
2023/12/22 09:35:30;;;;;;;16.80;2.95;;;;;;;8.41;100.00;100274.66;5086669;28;20471;-74
2023/12/22 09:37:56;;;;;;;12.50;2.70;;;;;;;8.50;100.00;100242.25;5084451;28;20064;-75
2023/12/22 09:40:24;;;;;;;13.73;2.70;;;;;;;8.60;100.00;100264.25;5087884;28;20032;-74
2023/12/22 09:42:54;;;;;;;16.23;2.83;;;;;;;8.61;100.00;100261.63;5083882;28;20096;-75
2023/12/22 09:45:21;;;;;;;14.57;2.50;;;;;;;8.65;100.00;100251.94;5083807;28;20030;-75
2023/12/22 09:47:48;;;;;;;11.18;2.20;;;;;;;8.75;100.00;100243.19;5087133;28;20035;-75
2023/12/22 09:50:15;;;;;;;11.55;2.20;;;;;;;8.85;100.00;100268.72;5084450;28;20047;-74
2023/12/22 09:52:46;;;;;;;9.82;2.20;;;;;;;8.85;100.00;100252.91;5086247;28;20039;-75
2023/12/22 09:55:14;;;;;;;15.98;2.90;;;;;;;8.90;100.00;100260.81;5085100;28;20031;-75
2023/12/22 09:57:39;;;;;;;14.50;2.58;;;;;;;8.93;100.00;100255.53;5067792;28;20541;-75
2023/12/22 10:00:09;;;;;;;10.85;2.58;;;;;;;8.96;100.00;100252.91;5085600;28;20032;-75
2023/12/22 10:02:37;;;;;;;12.20;2.40;;;;;;;8.97;100.00;100249.41;5085176;28;20025;-70
2023/12/22 10:05:02;;;;;;;13.00;2.53;;;;;;;9.02;100.00;100255.53;5085881;28;20036;-70
2023/12/22 10:07:28;;;;;;;16.25;2.85;;;;;;;9.10;100.00;100247.66;5085864;28;20019;-69
2023/12/22 10:09:56;;;;;;;12.90;2.78;;;;;;;9.16;100.00;100245.03;5083385;28;20047;-69
2023/12/22 10:12:23;;;;;;;15.48;2.60;;;;;;;9.20;100.00;100245.88;5083604;28;20063;-69
2023/12/22 10:14:49;;;;;;;11.60;2.63;;;;;;;9.22;100.00;100233.59;5086492;28;20495;-69
2023/12/22 10:17:16;;;;;;;8.73;2.30;;;;;;;9.30;100.00;100242.38;5084073;28;20110;-69
2023/12/22 10:19:42;;;;;;;13.48;2.42;;;;;;;9.33;100.00;100255.56;5085559;28;20047;-69
2023/12/22 10:22:07;;;;;;;12.80;2.53;;;;;;;9.42;100.00;100242.38;5066740;28;20475;-69
2023/12/22 10:24:39;;;;;;;11.10;2.65;;;;;;;9.34;100.00;100267.00;5084485;28;20027;-68
2023/12/22 10:27:05;;;;;;;14.65;2.60;;;;;;;9.39;100.00;100247.66;5085360;28;20024;-69
2023/12/22 10:29:32;;;;;;;14.32;2.63;;;;;;;9.37;100.00;100254.69;5065925;28;20494;-69
2023/12/22 10:31:57;;;;;;;13.35;2.90;;;;;;;9.34;100.00;100230.94;5086369;28;20046;-69
2023/12/22 10:34:23;;;;;;;13.10;2.60;;;;;;;9.35;100.00;100259.09;5082914;28;20472;-70
2023/12/22 10:36:48;;;;;;;12.75;2.47;;;;;;;9.40;100.00;100233.56;5086091;28;20028;-69
2023/12/22 10:39:14;;;;;;;13.52;2.50;;;;;;;9.40;100.00;100254.69;5083834;28;20048;-68
2023/12/22 10:41:40;;;;;;;14.65;2.70;;;;;;;9.46;100.00;100248.53;5066438;28;20051;-69
2023/12/22 10:44:05;;;;;;;11.65;2.53;;;;;;;9.39;100.00;100258.22;5084409;28;20024;-68
2023/12/22 10:46:33;;;;;;;15.00;2.60;;;;;;;9.48;100.00;100219.50;5083867;28;20356;-69
2023/12/22 10:48:59;;;;;;;13.40;2.50;;;;;;;9.46;100.00;100211.59;5085454;28;20056;-70
2023/12/22 10:51:24;;;;;;;10.80;2.40;;;;;;;9.51;100.00;100243.25;5082834;28;20060;-69
2023/12/22 10:53:51;;;;;;;13.00;2.30;;;;;;;9.64;100.00;100263.50;5086203;28;20074;-69
2023/12/22 10:56:17;;;;;;;11.77;2.40;;;;;;;9.56;100.00;100254.69;5082831;28;20028;-69
2023/12/22 10:58:42;;;;;;;11.18;2.40;;;;;;;9.49;100.00;100230.06;5085135;28;20035;-69
2023/12/22 11:01:11;;;;;;;13.70;2.72;;;;;;;9.43;100.00;100275.78;5084269;28;20506;-69
2023/12/22 11:03:39;;;;;;;13.23;2.50;;;;;;;9.47;100.00;100239.75;5084195;28;20425;-69
2023/12/22 11:06:10;;;;;;;14.48;2.78;;;;;;;9.55;100.00;100238.00;5084413;28;20059;-70
2023/12/22 11:08:36;;;;;;;12.50;2.70;;;;;;;9.43;100.00;100243.25;5083851;28;20372;-69
2023/12/22 11:11:07;;;;;;;11.85;2.22;;;;;;;9.35;100.00;100248.53;5084863;28;20035;-69